sensor_id;sensor_type;location;lat;lon;timestamp;P1;durP1;ratioP1;P2;durP2;ratioP2
8490;SDS011;4282;49.986;7.938;2023-03-01T00:01:13;9.63;;;6.30;;
8490;SDS011;4282;49.986;7.938;2023-03-01T00:03:42;9.97;;;6.60;;
8490;SDS011;4282;49.986;7.938;2023-03-01T00:06:13;8.73;;;6.10;;
8490;SDS011;4282;49.986;7.938;2023-03-01T00:08:42;10.57;;;6.97;;
8490;SDS011;4282;49.986;7.938;2023-03-01T00:11:12;9.50;;;6.20;;
8490;SDS011;4282;49.986;7.938;2023-03-01T00:13:42;10.33;;;6.17;;
8490;SDS011;4282;49.986;7.938;2023-03-01T00:16:12;8.87;;;5.87;;
8490;SDS011;4282;49.986;7.938;2023-03-01T00:18:42;9.13;;;6.50;;
8490;SDS011;4282;49.986;7.938;2023-03-01T00:21:10;8.57;;;6.83;;
8490;SDS011;4282;49.986;7.938;2023-03-01T00:23:41;9.67;;;6.87;;
8490;SDS011;4282;49.986;7.938;2023-03-01T00:26:11;9.53;;;7.00;;
8490;SDS011;4282;49.986;7.938;2023-03-01T00:28:40;8.40;;;7.03;;
8490;SDS011;4282;49.986;7.938;2023-03-01T00:31:10;9.87;;;7.03;;
8490;SDS011;4282;49.986;7.938;2023-03-01T00:33:40;9.93;;;6.90;;
8490;SDS011;4282;49.986;7.938;2023-03-01T00:36:08;9.23;;;6.67;;
8490;SDS011;4282;49.986;7.938;2023-03-01T00:38:42;8.00;;;7.17;;
8490;SDS011;4282;49.986;7.938;2023-03-01T00:41:12;11.23;;;7.27;;
8490;SDS011;4282;49.986;7.938;2023-03-01T00:43:42;10.23;;;7.23;;
8490;SDS011;4282;49.986;7.938;2023-03-01T00:46:13;9.77;;;6.83;;
8490;SDS011;4282;49.986;7.938;2023-03-01T00:48:42;9.63;;;6.60;;
8490;SDS011;4282;49.986;7.938;2023-03-01T00:51:11;10.23;;;7.13;;
8490;SDS011;4282;49.986;7.938;2023-03-01T00:53:43;10.77;;;7.00;;
8490;SDS011;4282;49.986;7.938;2023-03-01T00:56:12;14.73;;;7.63;;
8490;SDS011;4282;49.986;7.938;2023-03-01T00:58:41;8.53;;;6.47;;
8490;SDS011;4282;49.986;7.938;2023-03-01T01:01:10;10.40;;;6.60;;
8490;SDS011;4282;49.986;7.938;2023-03-01T01:03:45;10.97;;;7.00;;
8490;SDS011;4282;49.986;7.938;2023-03-01T01:06:15;9.60;;;7.10;;
8490;SDS011;4282;49.986;7.938;2023-03-01T01:08:47;9.10;;;6.70;;
8490;SDS011;4282;49.986;7.938;2023-03-01T01:11:16;9.30;;;6.93;;
8490;SDS011;4282;49.986;7.938;2023-03-01T01:13:45;11.30;;;7.47;;
8490;SDS011;4282;49.986;7.938;2023-03-01T01:16:14;9.17;;;7.00;;
8490;SDS011;4282;49.986;7.938;2023-03-01T01:18:43;13.53;;;8.67;;
8490;SDS011;4282;49.986;7.938;2023-03-01T01:21:12;11.50;;;7.10;;
8490;SDS011;4282;49.986;7.938;2023-03-01T01:23:42;10.20;;;6.87;;
8490;SDS011;4282;49.986;7.938;2023-03-01T01:26:15;10.27;;;7.40;;
8490;SDS011;4282;49.986;7.938;2023-03-01T01:28:44;13.87;;;8.23;;
8490;SDS011;4282;49.986;7.938;2023-03-01T01:31:13;15.10;;;8.13;;
8490;SDS011;4282;49.986;7.938;2023-03-01T01:33:42;11.77;;;7.93;;
8490;SDS011;4282;49.986;7.938;2023-03-01T01:36:10;11.63;;;7.90;;
8490;SDS011;4282;49.986;7.938;2023-03-01T01:38:39;10.03;;;7.00;;
8490;SDS011;4282;49.986;7.938;2023-03-01T01:41:08;10.80;;;7.33;;
8490;SDS011;4282;49.986;7.938;2023-03-01T01:43:41;12.30;;;7.57;;
8490;SDS011;4282;49.986;7.938;2023-03-01T01:46:15;12.00;;;7.30;;
8490;SDS011;4282;49.986;7.938;2023-03-01T01:48:47;9.53;;;7.13;;
8490;SDS011;4282;49.986;7.938;2023-03-01T01:51:21;9.67;;;7.33;;
8490;SDS011;4282;49.986;7.938;2023-03-01T01:53:53;10.13;;;6.83;;
8490;SDS011;4282;49.986;7.938;2023-03-01T01:56:24;10.13;;;7.40;;
8490;SDS011;4282;49.986;7.938;2023-03-01T01:58:56;9.40;;;7.33;;
8490;SDS011;4282;49.986;7.938;2023-03-01T02:01:25;10.20;;;7.87;;
8490;SDS011;4282;49.986;7.938;2023-03-01T02:03:53;10.90;;;7.63;;
8490;SDS011;4282;49.986;7.938;2023-03-01T02:06:24;12.50;;;6.80;;
8490;SDS011;4282;49.986;7.938;2023-03-01T02:08:55;12.10;;;7.20;;
8490;SDS011;4282;49.986;7.938;2023-03-01T02:11:25;9.80;;;7.13;;
8490;SDS011;4282;49.986;7.938;2023-03-01T02:13:57;11.17;;;7.30;;
8490;SDS011;4282;49.986;7.938;2023-03-01T02:16:26;9.67;;;7.23;;
8490;SDS011;4282;49.986;7.938;2023-03-01T02:18:55;11.67;;;7.60;;
8490;SDS011;4282;49.986;7.938;2023-03-01T02:21:29;10.30;;;6.73;;
8490;SDS011;4282;49.986;7.938;2023-03-01T02:24:08;10.13;;;7.30;;
8490;SDS011;4282;49.986;7.938;2023-03-01T02:26:45;10.00;;;7.57;;
8490;SDS011;4282;49.986;7.938;2023-03-01T02:29:17;10.00;;;7.00;;
8490;SDS011;4282;49.986;7.938;2023-03-01T02:31:45;12.37;;;7.47;;
8490;SDS011;4282;49.986;7.938;2023-03-01T02:34:12;9.83;;;7.03;;
8490;SDS011;4282;49.986;7.938;2023-03-01T02:36:43;10.67;;;7.90;;
8490;SDS011;4282;49.986;7.938;2023-03-01T02:39:14;11.33;;;7.90;;
8490;SDS011;4282;49.986;7.938;2023-03-01T02:41:45;11.73;;;7.57;;
8490;SDS011;4282;49.986;7.938;2023-03-01T02:44:17;11.77;;;8.37;;
8490;SDS011;4282;49.986;7.938;2023-03-01T02:46:46;10.53;;;8.43;;
8490;SDS011;4282;49.986;7.938;2023-03-01T02:49:18;12.47;;;7.60;;
8490;SDS011;4282;49.986;7.938;2023-03-01T02:51:52;11.83;;;8.10;;
8490;SDS011;4282;49.986;7.938;2023-03-01T02:54:25;11.23;;;7.67;;
8490;SDS011;4282;49.986;7.938;2023-03-01T02:56:56;10.40;;;7.17;;
8490;SDS011;4282;49.986;7.938;2023-03-01T02:59:29;9.80;;;7.23;;
8490;SDS011;4282;49.986;7.938;2023-03-01T03:02:00;10.50;;;7.03;;
8490;SDS011;4282;49.986;7.938;2023-03-01T03:04:28;11.50;;;7.77;;
8490;SDS011;4282;49.986;7.938;2023-03-01T03:06:57;12.67;;;8.40;;
8490;SDS011;4282;49.986;7.938;2023-03-01T03:09:25;12.63;;;7.77;;
8490;SDS011;4282;49.986;7.938;2023-03-01T03:11:53;11.80;;;7.33;;
8490;SDS011;4282;49.986;7.938;2023-03-01T03:14:22;10.93;;;7.47;;
8490;SDS011;4282;49.986;7.938;2023-03-01T03:16:53;12.30;;;7.87;;
8490;SDS011;4282;49.986;7.938;2023-03-01T03:19:21;11.80;;;7.50;;
8490;SDS011;4282;49.986;7.938;2023-03-01T03:21:49;12.27;;;8.03;;
8490;SDS011;4282;49.986;7.938;2023-03-01T03:24:17;12.83;;;8.20;;
8490;SDS011;4282;49.986;7.938;2023-03-01T03:26:46;13.40;;;8.53;;
8490;SDS011;4282;49.986;7.938;2023-03-01T03:29:14;14.87;;;7.57;;
8490;SDS011;4282;49.986;7.938;2023-03-01T03:31:42;13.93;;;9.40;;
8490;SDS011;4282;49.986;7.938;2023-03-01T03:34:13;11.90;;;8.47;;
8490;SDS011;4282;49.986;7.938;2023-03-01T03:36:42;12.77;;;8.43;;
8490;SDS011;4282;49.986;7.938;2023-03-01T03:39:11;11.73;;;8.20;;
8490;SDS011;4282;49.986;7.938;2023-03-01T03:41:39;13.83;;;8.90;;
8490;SDS011;4282;49.986;7.938;2023-03-01T03:44:07;14.00;;;9.47;;
8490;SDS011;4282;49.986;7.938;2023-03-01T03:46:35;11.73;;;8.43;;
8490;SDS011;4282;49.986;7.938;2023-03-01T03:49:04;13.60;;;9.13;;
8490;SDS011;4282;49.986;7.938;2023-03-01T03:51:35;13.17;;;8.57;;
8490;SDS011;4282;49.986;7.938;2023-03-01T03:54:03;14.27;;;8.87;;
8490;SDS011;4282;49.986;7.938;2023-03-01T03:56:31;12.33;;;8.83;;
8490;SDS011;4282;49.986;7.938;2023-03-01T03:59:00;12.33;;;9.00;;
8490;SDS011;4282;49.986;7.938;2023-03-01T04:01:28;13.67;;;8.80;;
8490;SDS011;4282;49.986;7.938;2023-03-01T04:03:56;12.97;;;9.10;;
8490;SDS011;4282;49.986;7.938;2023-03-01T04:06:29;12.73;;;10.23;;
8490;SDS011;4282;49.986;7.938;2023-03-01T04:09:00;13.53;;;8.77;;
8490;SDS011;4282;49.986;7.938;2023-03-01T04:11:29;16.00;;;9.27;;
8490;SDS011;4282;49.986;7.938;2023-03-01T04:13:59;12.07;;;8.50;;
8490;SDS011;4282;49.986;7.938;2023-03-01T04:16:29;14.33;;;8.87;;
8490;SDS011;4282;49.986;7.938;2023-03-01T04:18:57;12.17;;;9.30;;
8490;SDS011;4282;49.986;7.938;2023-03-01T04:21:26;11.37;;;8.70;;
8490;SDS011;4282;49.986;7.938;2023-03-01T04:23:55;13.77;;;9.37;;
8490;SDS011;4282;49.986;7.938;2023-03-01T04:26:26;15.33;;;8.90;;
8490;SDS011;4282;49.986;7.938;2023-03-01T04:28:54;13.23;;;8.67;;
8490;SDS011;4282;49.986;7.938;2023-03-01T04:31:23;13.47;;;9.13;;
8490;SDS011;4282;49.986;7.938;2023-03-01T04:33:51;14.50;;;8.97;;
8490;SDS011;4282;49.986;7.938;2023-03-01T04:36:21;14.00;;;8.97;;
8490;SDS011;4282;49.986;7.938;2023-03-01T04:38:51;11.17;;;8.37;;
8490;SDS011;4282;49.986;7.938;2023-03-01T04:41:19;14.70;;;9.50;;
8490;SDS011;4282;49.986;7.938;2023-03-01T04:43:51;12.50;;;9.23;;
8490;SDS011;4282;49.986;7.938;2023-03-01T04:46:20;13.07;;;8.60;;
8490;SDS011;4282;49.986;7.938;2023-03-01T04:48:48;15.53;;;9.67;;
8490;SDS011;4282;49.986;7.938;2023-03-01T04:51:17;15.00;;;9.20;;
8490;SDS011;4282;49.986;7.938;2023-03-01T04:53:45;14.40;;;9.20;;
8490;SDS011;4282;49.986;7.938;2023-03-01T04:56:13;12.90;;;8.60;;
8490;SDS011;4282;49.986;7.938;2023-03-01T04:58:43;12.73;;;8.77;;
8490;SDS011;4282;49.986;7.938;2023-03-01T05:01:15;13.33;;;9.20;;
8490;SDS011;4282;49.986;7.938;2023-03-01T05:03:45;12.10;;;8.83;;
8490;SDS011;4282;49.986;7.938;2023-03-01T05:06:15;14.13;;;9.10;;
8490;SDS011;4282;49.986;7.938;2023-03-01T05:08:44;14.33;;;9.20;;
8490;SDS011;4282;49.986;7.938;2023-03-01T05:11:12;14.70;;;9.43;;
8490;SDS011;4282;49.986;7.938;2023-03-01T05:13:41;16.03;;;10.20;;
8490;SDS011;4282;49.986;7.938;2023-03-01T05:16:09;15.80;;;9.70;;
8490;SDS011;4282;49.986;7.938;2023-03-01T05:18:41;17.07;;;9.23;;
8490;SDS011;4282;49.986;7.938;2023-03-01T05:21:10;15.80;;;9.87;;
8490;SDS011;4282;49.986;7.938;2023-03-01T05:23:40;15.50;;;9.93;;
8490;SDS011;4282;49.986;7.938;2023-03-01T05:26:09;15.10;;;10.33;;
8490;SDS011;4282;49.986;7.938;2023-03-01T05:28:37;14.27;;;9.40;;
8490;SDS011;4282;49.986;7.938;2023-03-01T05:31:06;14.83;;;9.50;;
8490;SDS011;4282;49.986;7.938;2023-03-01T05:33:35;17.57;;;9.77;;
8490;SDS011;4282;49.986;7.938;2023-03-01T05:36:06;15.97;;;9.53;;
8490;SDS011;4282;49.986;7.938;2023-03-01T05:38:36;15.63;;;10.00;;
8490;SDS011;4282;49.986;7.938;2023-03-01T05:41:04;16.50;;;9.90;;
8490;SDS011;4282;49.986;7.938;2023-03-01T05:43:33;16.80;;;9.87;;
8490;SDS011;4282;49.986;7.938;2023-03-01T05:46:01;14.17;;;9.47;;
8490;SDS011;4282;49.986;7.938;2023-03-01T05:48:30;16.17;;;9.57;;
8490;SDS011;4282;49.986;7.938;2023-03-01T05:50:59;16.10;;;10.43;;
8490;SDS011;4282;49.986;7.938;2023-03-01T05:53:30;15.60;;;10.60;;
8490;SDS011;4282;49.986;7.938;2023-03-01T05:55:58;15.93;;;9.90;;
8490;SDS011;4282;49.986;7.938;2023-03-01T05:58:26;15.07;;;10.37;;
8490;SDS011;4282;49.986;7.938;2023-03-01T06:00:55;17.03;;;10.50;;
8490;SDS011;4282;49.986;7.938;2023-03-01T06:03:23;17.40;;;10.40;;
8490;SDS011;4282;49.986;7.938;2023-03-01T06:05:55;14.30;;;10.03;;
8490;SDS011;4282;49.986;7.938;2023-03-01T06:08:23;15.37;;;9.73;;
8490;SDS011;4282;49.986;7.938;2023-03-01T06:10:54;16.17;;;9.50;;
8490;SDS011;4282;49.986;7.938;2023-03-01T06:13:23;15.13;;;9.93;;
8490;SDS011;4282;49.986;7.938;2023-03-01T06:15:51;14.87;;;9.60;;
8490;SDS011;4282;49.986;7.938;2023-03-01T06:18:19;19.37;;;10.20;;
8490;SDS011;4282;49.986;7.938;2023-03-01T06:20:52;14.60;;;10.77;;
8490;SDS011;4282;49.986;7.938;2023-03-01T06:23:21;15.00;;;9.37;;
8490;SDS011;4282;49.986;7.938;2023-03-01T06:25:51;16.33;;;10.90;;
8490;SDS011;4282;49.986;7.938;2023-03-01T06:28:22;12.60;;;9.07;;
8490;SDS011;4282;49.986;7.938;2023-03-01T06:30:50;14.80;;;9.90;;
8490;SDS011;4282;49.986;7.938;2023-03-01T06:33:19;16.17;;;10.27;;
8490;SDS011;4282;49.986;7.938;2023-03-01T06:35:49;15.97;;;10.13;;
8490;SDS011;4282;49.986;7.938;2023-03-01T06:38:17;14.60;;;9.87;;
8490;SDS011;4282;49.986;7.938;2023-03-01T06:40:51;14.20;;;9.93;;
8490;SDS011;4282;49.986;7.938;2023-03-01T06:43:24;15.07;;;10.57;;
8490;SDS011;4282;49.986;7.938;2023-03-01T06:45:52;18.37;;;11.23;;
8490;SDS011;4282;49.986;7.938;2023-03-01T06:48:20;17.00;;;12.27;;
8490;SDS011;4282;49.986;7.938;2023-03-01T06:50:48;17.33;;;10.43;;
8490;SDS011;4282;49.986;7.938;2023-03-01T06:53:16;15.20;;;9.97;;
8490;SDS011;4282;49.986;7.938;2023-03-01T06:55:45;15.37;;;9.43;;
8490;SDS011;4282;49.986;7.938;2023-03-01T06:58:13;18.63;;;10.83;;
8490;SDS011;4282;49.986;7.938;2023-03-01T07:00:44;16.77;;;10.97;;
8490;SDS011;4282;49.986;7.938;2023-03-01T07:03:12;17.33;;;12.23;;
8490;SDS011;4282;49.986;7.938;2023-03-01T07:05:40;18.63;;;12.40;;
8490;SDS011;4282;49.986;7.938;2023-03-01T07:08:09;17.93;;;11.87;;
8490;SDS011;4282;49.986;7.938;2023-03-01T07:10:37;17.50;;;11.83;;
8490;SDS011;4282;49.986;7.938;2023-03-01T07:13:06;17.03;;;11.07;;
8490;SDS011;4282;49.986;7.938;2023-03-01T07:15:34;17.43;;;10.17;;
8490;SDS011;4282;49.986;7.938;2023-03-01T07:18:05;15.23;;;10.20;;
8490;SDS011;4282;49.986;7.938;2023-03-01T07:20:34;14.03;;;9.97;;
8490;SDS011;4282;49.986;7.938;2023-03-01T07:23:02;15.13;;;9.80;;
8490;SDS011;4282;49.986;7.938;2023-03-01T07:25:30;16.23;;;11.23;;
8490;SDS011;4282;49.986;7.938;2023-03-01T07:27:59;15.43;;;10.77;;
8490;SDS011;4282;49.986;7.938;2023-03-01T07:30:28;15.77;;;9.33;;
8490;SDS011;4282;49.986;7.938;2023-03-01T07:32:56;17.67;;;11.00;;
8490;SDS011;4282;49.986;7.938;2023-03-01T07:35:27;15.07;;;9.87;;
8490;SDS011;4282;49.986;7.938;2023-03-01T07:37:55;13.93;;;10.43;;
8490;SDS011;4282;49.986;7.938;2023-03-01T07:40:24;13.10;;;9.60;;
8490;SDS011;4282;49.986;7.938;2023-03-01T07:42:54;14.63;;;10.17;;
8490;SDS011;4282;49.986;7.938;2023-03-01T07:45:23;13.50;;;10.80;;
8490;SDS011;4282;49.986;7.938;2023-03-01T07:47:51;16.93;;;10.57;;
8490;SDS011;4282;49.986;7.938;2023-03-01T07:50:20;15.17;;;11.27;;
8490;SDS011;4282;49.986;7.938;2023-03-01T07:52:51;15.20;;;10.30;;
8490;SDS011;4282;49.986;7.938;2023-03-01T07:55:19;14.07;;;11.17;;
8490;SDS011;4282;49.986;7.938;2023-03-01T07:57:48;12.97;;;9.27;;
8490;SDS011;4282;49.986;7.938;2023-03-01T08:00:16;13.17;;;9.30;;
8490;SDS011;4282;49.986;7.938;2023-03-01T08:02:45;13.50;;;11.03;;
8490;SDS011;4282;49.986;7.938;2023-03-01T08:05:13;14.97;;;10.33;;
8490;SDS011;4282;49.986;7.938;2023-03-01T08:07:42;14.47;;;10.47;;
8490;SDS011;4282;49.986;7.938;2023-03-01T08:10:13;17.10;;;10.60;;
8490;SDS011;4282;49.986;7.938;2023-03-01T08:12:41;14.83;;;11.87;;
8490;SDS011;4282;49.986;7.938;2023-03-01T08:15:10;17.70;;;11.27;;
8490;SDS011;4282;49.986;7.938;2023-03-01T08:17:38;13.93;;;10.47;;
8490;SDS011;4282;49.986;7.938;2023-03-01T08:20:07;12.17;;;8.43;;
8490;SDS011;4282;49.986;7.938;2023-03-01T08:22:37;11.80;;;8.00;;
8490;SDS011;4282;49.986;7.938;2023-03-01T08:25:05;12.33;;;7.30;;
8490;SDS011;4282;49.986;7.938;2023-03-01T08:27:37;12.57;;;8.37;;
8490;SDS011;4282;49.986;7.938;2023-03-01T08:30:06;15.67;;;10.40;;
8490;SDS011;4282;49.986;7.938;2023-03-01T08:32:35;11.53;;;7.83;;
8490;SDS011;4282;49.986;7.938;2023-03-01T08:35:05;9.60;;;6.97;;
8490;SDS011;4282;49.986;7.938;2023-03-01T08:37:34;13.10;;;8.50;;
8490;SDS011;4282;49.986;7.938;2023-03-01T08:40:02;14.40;;;9.90;;
8490;SDS011;4282;49.986;7.938;2023-03-01T08:42:32;6.57;;;5.20;;
8490;SDS011;4282;49.986;7.938;2023-03-01T08:45:03;14.37;;;10.07;;
8490;SDS011;4282;49.986;7.938;2023-03-01T08:47:33;9.67;;;8.53;;
8490;SDS011;4282;49.986;7.938;2023-03-01T08:50:01;13.57;;;8.20;;
8490;SDS011;4282;49.986;7.938;2023-03-01T08:52:30;11.63;;;7.37;;
8490;SDS011;4282;49.986;7.938;2023-03-01T08:54:59;8.83;;;4.67;;
8490;SDS011;4282;49.986;7.938;2023-03-01T08:57:29;12.50;;;7.33;;
8490;SDS011;4282;49.986;7.938;2023-03-01T08:59:58;11.33;;;7.63;;
8490;SDS011;4282;49.986;7.938;2023-03-01T09:02:28;11.70;;;5.87;;
8490;SDS011;4282;49.986;7.938;2023-03-01T09:04:57;9.93;;;7.40;;
8490;SDS011;4282;49.986;7.938;2023-03-01T09:07:25;12.60;;;7.93;;
8490;SDS011;4282;49.986;7.938;2023-03-01T09:09:55;12.07;;;8.03;;
8490;SDS011;4282;49.986;7.938;2023-03-01T09:12:23;9.00;;;5.43;;
8490;SDS011;4282;49.986;7.938;2023-03-01T09:14:52;9.97;;;7.10;;
8490;SDS011;4282;49.986;7.938;2023-03-01T09:17:20;9.17;;;5.93;;
8490;SDS011;4282;49.986;7.938;2023-03-01T09:19:51;10.33;;;7.33;;
8490;SDS011;4282;49.986;7.938;2023-03-01T09:22:19;10.40;;;7.33;;
8490;SDS011;4282;49.986;7.938;2023-03-01T09:24:48;12.87;;;9.17;;
8490;SDS011;4282;49.986;7.938;2023-03-01T09:27:16;11.40;;;8.30;;
8490;SDS011;4282;49.986;7.938;2023-03-01T09:32:29;12.90;;;8.70;;
8490;SDS011;4282;49.986;7.938;2023-03-01T09:35:00;11.67;;;8.83;;
8490;SDS011;4282;49.986;7.938;2023-03-01T09:37:29;12.57;;;9.40;;
8490;SDS011;4282;49.986;7.938;2023-03-01T09:39:58;13.07;;;9.20;;
8490;SDS011;4282;49.986;7.938;2023-03-01T09:42:27;12.23;;;9.60;;
8490;SDS011;4282;49.986;7.938;2023-03-01T09:44:58;11.13;;;8.20;;
8490;SDS011;4282;49.986;7.938;2023-03-01T09:47:29;12.53;;;8.97;;
8490;SDS011;4282;49.986;7.938;2023-03-01T09:50:03;10.73;;;8.30;;
8490;SDS011;4282;49.986;7.938;2023-03-01T09:52:34;12.87;;;8.93;;
8490;SDS011;4282;49.986;7.938;2023-03-01T09:55:08;12.80;;;8.67;;
8490;SDS011;4282;49.986;7.938;2023-03-01T09:57:41;10.53;;;6.63;;
8490;SDS011;4282;49.986;7.938;2023-03-01T10:00:20;13.77;;;8.97;;
8490;SDS011;4282;49.986;7.938;2023-03-01T10:02:56;11.50;;;9.00;;
8490;SDS011;4282;49.986;7.938;2023-03-01T10:05:34;10.97;;;6.40;;
8490;SDS011;4282;49.986;7.938;2023-03-01T10:08:13;9.20;;;5.87;;
8490;SDS011;4282;49.986;7.938;2023-03-01T10:10:51;12.80;;;8.60;;
8490;SDS011;4282;49.986;7.938;2023-03-01T10:13:21;14.47;;;9.70;;
8490;SDS011;4282;49.986;7.938;2023-03-01T10:15:53;16.37;;;8.40;;
8490;SDS011;4282;49.986;7.938;2023-03-01T10:18:24;15.07;;;9.93;;
8490;SDS011;4282;49.986;7.938;2023-03-01T10:20:58;9.37;;;5.83;;
8490;SDS011;4282;49.986;7.938;2023-03-01T10:23:28;13.00;;;8.33;;
8490;SDS011;4282;49.986;7.938;2023-03-01T10:26:06;9.43;;;5.37;;
8490;SDS011;4282;49.986;7.938;2023-03-01T10:28:42;15.53;;;8.40;;
8490;SDS011;4282;49.986;7.938;2023-03-01T10:31:16;8.97;;;7.23;;
8490;SDS011;4282;49.986;7.938;2023-03-01T10:33:47;12.50;;;9.10;;
8490;SDS011;4282;49.986;7.938;2023-03-01T10:36:22;14.53;;;9.67;;
8490;SDS011;4282;49.986;7.938;2023-03-01T10:38:51;11.17;;;8.20;;
8490;SDS011;4282;49.986;7.938;2023-03-01T10:41:22;9.40;;;6.03;;
8490;SDS011;4282;49.986;7.938;2023-03-01T10:43:52;16.33;;;9.83;;
8490;SDS011;4282;49.986;7.938;2023-03-01T10:46:23;12.73;;;9.20;;
8490;SDS011;4282;49.986;7.938;2023-03-01T10:49:05;11.90;;;7.33;;
8490;SDS011;4282;49.986;7.938;2023-03-01T10:51:37;15.33;;;10.43;;
8490;SDS011;4282;49.986;7.938;2023-03-01T10:54:06;10.13;;;8.33;;
8490;SDS011;4282;49.986;7.938;2023-03-01T10:56:47;14.60;;;10.40;;
8490;SDS011;4282;49.986;7.938;2023-03-01T10:59:22;14.50;;;8.83;;
8490;SDS011;4282;49.986;7.938;2023-03-01T11:02:09;15.73;;;11.67;;
8490;SDS011;4282;49.986;7.938;2023-03-01T11:04:56;11.43;;;7.80;;
8490;SDS011;4282;49.986;7.938;2023-03-01T11:07:28;13.20;;;7.93;;
8490;SDS011;4282;49.986;7.938;2023-03-01T11:09:57;11.47;;;8.57;;
8490;SDS011;4282;49.986;7.938;2023-03-01T11:12:25;11.50;;;8.77;;
8490;SDS011;4282;49.986;7.938;2023-03-01T11:14:54;11.57;;;8.60;;
8490;SDS011;4282;49.986;7.938;2023-03-01T11:17:24;9.70;;;7.87;;
8490;SDS011;4282;49.986;7.938;2023-03-01T11:20:02;15.57;;;9.03;;
8490;SDS011;4282;49.986;7.938;2023-03-01T11:22:37;13.73;;;8.40;;
8490;SDS011;4282;49.986;7.938;2023-03-01T11:25:11;14.97;;;10.97;;
8490;SDS011;4282;49.986;7.938;2023-03-01T11:27:41;12.33;;;8.17;;
8490;SDS011;4282;49.986;7.938;2023-03-01T11:30:15;13.03;;;7.93;;
8490;SDS011;4282;49.986;7.938;2023-03-01T11:32:47;9.97;;;7.80;;
8490;SDS011;4282;49.986;7.938;2023-03-01T11:35:23;18.07;;;12.83;;
8490;SDS011;4282;49.986;7.938;2023-03-01T11:37:59;11.83;;;8.43;;
8490;SDS011;4282;49.986;7.938;2023-03-01T11:40:33;11.73;;;7.07;;
8490;SDS011;4282;49.986;7.938;2023-03-01T11:43:05;10.33;;;6.97;;
8490;SDS011;4282;49.986;7.938;2023-03-01T11:45:43;13.40;;;8.57;;
8490;SDS011;4282;49.986;7.938;2023-03-01T11:48:37;12.63;;;7.97;;
8490;SDS011;4282;49.986;7.938;2023-03-01T11:51:13;10.40;;;7.00;;
8490;SDS011;4282;49.986;7.938;2023-03-01T11:53:54;11.83;;;7.93;;
8490;SDS011;4282;49.986;7.938;2023-03-01T11:56:28;8.93;;;5.77;;
8490;SDS011;4282;49.986;7.938;2023-03-01T12:01:52;8.27;;;6.43;;
8490;SDS011;4282;49.986;7.938;2023-03-01T12:07:51;10.13;;;7.07;;
8490;SDS011;4282;49.986;7.938;2023-03-01T12:10:27;7.97;;;4.77;;
8490;SDS011;4282;49.986;7.938;2023-03-01T12:15:54;11.13;;;8.47;;
8490;SDS011;4282;49.986;7.938;2023-03-01T12:18:37;12.53;;;8.43;;
8490;SDS011;4282;49.986;7.938;2023-03-01T12:21:20;7.23;;;5.43;;
8490;SDS011;4282;49.986;7.938;2023-03-01T12:24:00;11.37;;;8.30;;
8490;SDS011;4282;49.986;7.938;2023-03-01T12:26:40;10.13;;;6.30;;
8490;SDS011;4282;49.986;7.938;2023-03-01T12:29:16;11.43;;;6.80;;
8490;SDS011;4282;49.986;7.938;2023-03-01T12:32:00;9.33;;;6.93;;
8490;SDS011;4282;49.986;7.938;2023-03-01T12:34:49;6.30;;;3.93;;
8490;SDS011;4282;49.986;7.938;2023-03-01T12:37:42;4.37;;;3.77;;
8490;SDS011;4282;49.986;7.938;2023-03-01T12:40:22;10.07;;;6.83;;
8490;SDS011;4282;49.986;7.938;2023-03-01T12:43:20;7.43;;;5.63;;
8490;SDS011;4282;49.986;7.938;2023-03-01T12:45:55;8.83;;;5.83;;
8490;SDS011;4282;49.986;7.938;2023-03-01T12:48:36;10.03;;;7.37;;
8490;SDS011;4282;49.986;7.938;2023-03-01T12:51:10;9.57;;;6.40;;
8490;SDS011;4282;49.986;7.938;2023-03-01T12:53:41;8.53;;;5.67;;
8490;SDS011;4282;49.986;7.938;2023-03-01T12:56:13;8.73;;;5.87;;
8490;SDS011;4282;49.986;7.938;2023-03-01T12:58:50;12.97;;;7.13;;
8490;SDS011;4282;49.986;7.938;2023-03-01T13:01:32;9.03;;;5.63;;
8490;SDS011;4282;49.986;7.938;2023-03-01T13:04:22;7.07;;;5.13;;
8490;SDS011;4282;49.986;7.938;2023-03-01T13:07:02;8.60;;;7.10;;
8490;SDS011;4282;49.986;7.938;2023-03-01T13:09:50;11.33;;;6.70;;
8490;SDS011;4282;49.986;7.938;2023-03-01T13:12:42;11.53;;;7.67;;
8490;SDS011;4282;49.986;7.938;2023-03-01T13:17:59;11.33;;;6.60;;
8490;SDS011;4282;49.986;7.938;2023-03-01T13:20:33;8.70;;;7.00;;
8490;SDS011;4282;49.986;7.938;2023-03-01T13:23:04;9.57;;;6.37;;
8490;SDS011;4282;49.986;7.938;2023-03-01T13:25:35;8.23;;;7.13;;
8490;SDS011;4282;49.986;7.938;2023-03-01T13:28:50;9.93;;;7.70;;
8490;SDS011;4282;49.986;7.938;2023-03-01T13:34:45;8.37;;;6.60;;
8490;SDS011;4282;49.986;7.938;2023-03-01T13:37:20;8.47;;;6.47;;
8490;SDS011;4282;49.986;7.938;2023-03-01T13:39:55;9.13;;;6.60;;
8490;SDS011;4282;49.986;7.938;2023-03-01T13:42:31;8.17;;;6.50;;
8490;SDS011;4282;49.986;7.938;2023-03-01T13:45:12;8.50;;;6.70;;
8490;SDS011;4282;49.986;7.938;2023-03-01T13:47:47;7.83;;;5.63;;
8490;SDS011;4282;49.986;7.938;2023-03-01T13:50:20;7.87;;;5.90;;
8490;SDS011;4282;49.986;7.938;2023-03-01T13:52:50;7.23;;;5.77;;
8490;SDS011;4282;49.986;7.938;2023-03-01T13:55:25;9.77;;;6.53;;
8490;SDS011;4282;49.986;7.938;2023-03-01T13:57:58;6.70;;;6.00;;
8490;SDS011;4282;49.986;7.938;2023-03-01T14:00:39;8.70;;;6.17;;
8490;SDS011;4282;49.986;7.938;2023-03-01T14:03:09;5.13;;;3.90;;
8490;SDS011;4282;49.986;7.938;2023-03-01T14:05:39;8.37;;;4.97;;
8490;SDS011;4282;49.986;7.938;2023-03-01T14:08:22;8.60;;;6.97;;
8490;SDS011;4282;49.986;7.938;2023-03-01T14:10:58;9.03;;;8.00;;
8490;SDS011;4282;49.986;7.938;2023-03-01T14:13:42;9.17;;;7.30;;
8490;SDS011;4282;49.986;7.938;2023-03-01T14:16:24;9.90;;;8.13;;
8490;SDS011;4282;49.986;7.938;2023-03-01T14:19:02;8.63;;;7.37;;
8490;SDS011;4282;49.986;7.938;2023-03-01T14:21:38;8.77;;;7.13;;
8490;SDS011;4282;49.986;7.938;2023-03-01T14:24:14;9.60;;;6.97;;
8490;SDS011;4282;49.986;7.938;2023-03-01T14:26:44;8.83;;;7.17;;
8490;SDS011;4282;49.986;7.938;2023-03-01T14:29:26;12.17;;;7.73;;
8490;SDS011;4282;49.986;7.938;2023-03-01T14:32:01;10.07;;;7.30;;
8490;SDS011;4282;49.986;7.938;2023-03-01T14:34:36;13.77;;;8.27;;
8490;SDS011;4282;49.986;7.938;2023-03-01T14:37:18;10.83;;;7.90;;
8490;SDS011;4282;49.986;7.938;2023-03-01T14:39:48;12.53;;;8.00;;
8490;SDS011;4282;49.986;7.938;2023-03-01T14:42:17;9.47;;;8.03;;
8490;SDS011;4282;49.986;7.938;2023-03-01T14:44:46;8.27;;;7.47;;
8490;SDS011;4282;49.986;7.938;2023-03-01T14:47:19;8.77;;;6.83;;
8490;SDS011;4282;49.986;7.938;2023-03-01T14:49:56;9.37;;;7.50;;
8490;SDS011;4282;49.986;7.938;2023-03-01T14:52:27;8.23;;;6.33;;
8490;SDS011;4282;49.986;7.938;2023-03-01T14:55:01;11.67;;;7.53;;
8490;SDS011;4282;49.986;7.938;2023-03-01T14:57:31;9.50;;;7.10;;
8490;SDS011;4282;49.986;7.938;2023-03-01T15:00:00;9.70;;;7.60;;
8490;SDS011;4282;49.986;7.938;2023-03-01T15:02:34;10.40;;;7.40;;
8490;SDS011;4282;49.986;7.938;2023-03-01T15:05:04;12.17;;;7.33;;
8490;SDS011;4282;49.986;7.938;2023-03-01T15:07:34;10.43;;;7.23;;
8490;SDS011;4282;49.986;7.938;2023-03-01T15:10:05;9.93;;;7.23;;
8490;SDS011;4282;49.986;7.938;2023-03-01T15:12:36;8.10;;;7.23;;
8490;SDS011;4282;49.986;7.938;2023-03-01T15:17:58;12.13;;;8.07;;
8490;SDS011;4282;49.986;7.938;2023-03-01T15:20:28;9.47;;;7.27;;
8490;SDS011;4282;49.986;7.938;2023-03-01T15:23:00;10.27;;;7.90;;
8490;SDS011;4282;49.986;7.938;2023-03-01T15:25:29;10.07;;;7.10;;
8490;SDS011;4282;49.986;7.938;2023-03-01T15:27:59;10.47;;;8.07;;
8490;SDS011;4282;49.986;7.938;2023-03-01T15:30:29;10.57;;;7.77;;
8490;SDS011;4282;49.986;7.938;2023-03-01T15:35:54;9.53;;;8.30;;
8490;SDS011;4282;49.986;7.938;2023-03-01T15:38:27;10.40;;;8.07;;
8490;SDS011;4282;49.986;7.938;2023-03-01T15:41:00;8.77;;;7.97;;
8490;SDS011;4282;49.986;7.938;2023-03-01T15:43:37;11.70;;;7.83;;
8490;SDS011;4282;49.986;7.938;2023-03-01T15:46:15;9.87;;;8.17;;
8490;SDS011;4282;49.986;7.938;2023-03-01T15:48:57;10.90;;;8.17;;
8490;SDS011;4282;49.986;7.938;2023-03-01T15:51:28;9.50;;;7.50;;
8490;SDS011;4282;49.986;7.938;2023-03-01T15:53:59;8.30;;;6.97;;